createdAt,value
2019-02-08T00:01:13.611Z,20.13
2019-02-08T00:03:42.904Z,18.30
2019-02-08T00:06:11.797Z,20.00
2019-02-08T00:08:40.791Z,19.13
2019-02-08T00:11:09.761Z,19.23
2019-02-08T00:13:38.694Z,18.87
2019-02-08T00:16:07.864Z,18.77
2019-02-08T00:18:36.871Z,17.80
2019-02-08T00:21:06.544Z,18.77
2019-02-08T00:23:35.455Z,19.73
2019-02-08T00:26:04.437Z,16.80
2019-02-08T00:28:33.730Z,18.70
2019-02-08T00:31:02.633Z,19.03
2019-02-08T00:33:31.625Z,19.20
2019-02-08T00:36:00.922Z,17.80
2019-02-08T00:38:29.842Z,19.10
2019-02-08T00:40:58.818Z,19.17
2019-02-08T00:43:27.800Z,18.57
2019-02-08T00:45:56.973Z,18.57
2019-02-08T00:48:25.890Z,19.00
2019-02-08T00:50:54.797Z,17.60
2019-02-08T00:53:24.470Z,17.80
2019-02-08T00:55:53.666Z,18.87
2019-02-08T00:58:22.581Z,15.50
2019-02-08T01:00:51.397Z,17.67
2019-02-08T01:03:20.313Z,18.90
2019-02-08T01:05:49.290Z,18.10
2019-02-08T01:08:18.274Z,16.80
2019-02-08T01:10:47.244Z,17.17
2019-02-08T01:13:16.247Z,16.70
2019-02-08T01:15:45.457Z,16.80
2019-02-08T01:18:14.368Z,17.93
2019-02-08T01:20:43.694Z,17.47
2019-02-08T01:23:12.672Z,15.90
2019-02-08T01:25:42.318Z,16.20
2019-02-08T01:28:11.586Z,15.43
2019-02-08T01:30:40.494Z,16.77
2019-02-08T01:33:09.482Z,16.70
2019-02-08T01:35:38.453Z,17.30
2019-02-08T01:38:07.385Z,15.60
2019-02-08T01:40:37.587Z,16.00
2019-02-08T01:43:06.975Z,14.80
2019-02-08T01:45:36.406Z,15.27
2019-02-08T01:48:06.718Z,15.23
2019-02-08T01:50:35.897Z,15.07
2019-02-08T01:53:05.097Z,15.03
2019-02-08T01:55:33.998Z,16.17
2019-02-08T01:58:03.084Z,16.37
2019-02-08T02:00:37.137Z,15.47
2019-02-08T02:03:07.401Z,16.87
2019-02-08T02:05:36.378Z,16.23
2019-02-08T02:08:06.138Z,16.50
2019-02-08T02:10:37.459Z,17.87
2019-02-08T02:13:07.412Z,17.00
2019-02-08T02:15:36.672Z,17.77
2019-02-08T02:18:06.127Z,16.83
2019-02-08T02:20:36.869Z,18.13
2019-02-08T02:23:06.881Z,18.47
2019-02-08T02:25:35.871Z,18.30
2019-02-08T02:28:05.373Z,19.07
2019-02-08T02:30:35.222Z,17.40
2019-02-08T02:33:05.549Z,17.00
2019-02-08T02:35:34.583Z,17.70
2019-02-08T02:38:04.286Z,18.70
2019-02-08T02:40:33.881Z,17.83
2019-02-08T02:43:02.889Z,17.40
2019-02-08T02:45:33.981Z,17.60
2019-02-08T02:48:03.306Z,16.20
2019-02-08T02:50:32.310Z,16.60
2019-02-08T02:53:01.300Z,16.90
2019-02-08T02:55:31.136Z,15.87
2019-02-08T02:58:00.397Z,17.23
2019-02-08T03:00:44.004Z,16.30
2019-02-08T03:03:14.454Z,14.03
2019-02-08T03:05:43.764Z,15.17
2019-02-08T03:08:14.048Z,16.90
2019-02-08T03:10:43.059Z,17.37
2019-02-08T03:13:12.152Z,14.23
2019-02-08T03:15:41.229Z,14.50
2019-02-08T03:18:10.588Z,15.93
2019-02-08T03:20:39.595Z,13.70
2019-02-08T03:23:08.597Z,15.60
2019-02-08T03:25:37.600Z,14.93
2019-02-08T03:28:06.601Z,14.50
2019-02-08T03:30:40.344Z,14.43
2019-02-08T03:33:09.634Z,14.73
2019-02-08T03:35:38.653Z,15.43
2019-02-08T03:38:07.670Z,14.17
2019-02-08T03:40:36.668Z,14.13
2019-02-08T03:43:05.735Z,13.83
2019-02-08T03:45:38.559Z,13.97
2019-02-08T03:48:07.744Z,14.10
2019-02-08T03:50:37.087Z,14.77
2019-02-08T03:53:06.884Z,14.73
2019-02-08T03:55:36.264Z,13.60
2019-02-08T03:58:05.940Z,13.83
2019-02-08T04:00:39.898Z,14.20
2019-02-08T04:03:08.887Z,13.43
2019-02-08T04:05:37.891Z,13.73
2019-02-08T04:08:07.001Z,13.60
2019-02-08T04:10:37.034Z,13.27
2019-02-08T04:13:06.019Z,14.50
2019-02-08T04:15:35.332Z,12.27
2019-02-08T04:18:04.705Z,12.97
2019-02-08T04:20:33.709Z,13.37
2019-02-08T04:23:03.017Z,12.63
2019-02-08T04:25:32.037Z,12.87
2019-02-08T04:28:00.952Z,12.67
2019-02-08T04:30:30.596Z,12.97
2019-02-08T04:33:00.452Z,13.57
2019-02-08T04:35:29.452Z,13.93
2019-02-08T04:38:09.930Z,14.47
2019-02-08T04:40:38.936Z,15.30
2019-02-08T04:43:07.933Z,13.67
2019-02-08T04:45:37.181Z,12.90
2019-02-08T04:48:06.181Z,14.87
2019-02-08T04:50:35.117Z,14.40
2019-02-08T04:53:04.208Z,14.57
2019-02-08T04:55:33.212Z,14.30
2019-02-08T04:58:02.132Z,13.80
2019-02-08T05:00:33.608Z,13.87
2019-02-08T05:03:02.681Z,14.60
2019-02-08T05:05:31.696Z,14.47
2019-02-08T05:08:00.714Z,13.33
2019-02-08T05:10:30.630Z,13.87
2019-02-08T05:12:59.631Z,14.60
2019-02-08T05:15:28.769Z,14.17
2019-02-08T05:17:58.168Z,12.93
2019-02-08T05:20:28.304Z,14.00
2019-02-08T05:22:57.649Z,13.63
2019-02-08T05:25:26.690Z,14.10
2019-02-08T05:27:55.996Z,15.03
2019-02-08T05:30:27.265Z,13.53
2019-02-08T05:32:56.291Z,15.13
2019-02-08T05:35:25.604Z,13.00
2019-02-08T05:37:54.619Z,13.80
2019-02-08T05:40:24.352Z,14.40
2019-02-08T05:42:53.360Z,20.10
2019-02-08T05:45:22.819Z,15.33
2019-02-08T05:48:10.956Z,13.03
2019-02-08T05:50:39.973Z,13.83
2019-02-08T05:53:08.976Z,14.87
2019-02-08T05:55:37.969Z,13.20
2019-02-08T05:58:07.614Z,13.47
2019-02-08T06:00:49.301Z,14.63
2019-02-08T06:03:18.314Z,13.37
2019-02-08T06:05:47.720Z,13.50
2019-02-08T06:08:17.205Z,13.03
2019-02-08T06:10:46.124Z,12.60
2019-02-08T06:13:15.415Z,12.90
2019-02-08T06:15:44.349Z,11.37
2019-02-08T06:18:13.680Z,12.23
2019-02-08T06:20:42.734Z,12.70
2019-02-08T06:23:11.736Z,14.00
2019-02-08T06:25:41.072Z,13.20
2019-02-08T06:28:10.106Z,12.33
2019-02-08T06:30:39.397Z,12.50
2019-02-08T06:33:09.076Z,13.57
2019-02-08T06:35:38.367Z,12.10
2019-02-08T06:38:07.848Z,13.30
2019-02-08T06:40:40.040Z,11.87
2019-02-08T06:43:09.164Z,11.60
2019-02-08T06:45:38.183Z,12.77
2019-02-08T06:48:08.241Z,13.40
2019-02-08T06:50:37.230Z,10.70
2019-02-08T06:53:06.427Z,11.93
2019-02-08T06:55:35.443Z,13.50
2019-02-08T06:58:37.404Z,12.10
2019-02-08T07:01:24.476Z,12.23
2019-02-08T07:04:02.852Z,11.90
2019-02-08T07:06:52.689Z,12.73
2019-02-08T07:09:59.479Z,12.80
2019-02-08T07:12:47.954Z,11.90
2019-02-08T07:15:34.783Z,12.47
2019-02-08T07:18:21.908Z,11.10
2019-02-08T07:21:16.022Z,11.10
2019-02-08T07:24:07.126Z,11.13
2019-02-08T07:26:55.512Z,10.97
2019-02-08T07:29:39.975Z,10.53
2019-02-08T07:32:46.739Z,8.47
2019-02-08T07:35:26.804Z,8.57
2019-02-08T07:38:02.332Z,9.10
2019-02-08T07:40:52.737Z,8.63
2019-02-08T07:43:47.324Z,8.20
2019-02-08T07:46:34.820Z,8.10
2019-02-08T07:49:14.883Z,7.60
2019-02-08T07:52:02.937Z,7.63
2019-02-08T07:54:51.660Z,7.50
2019-02-08T07:57:39.748Z,8.33
2019-02-08T08:00:33.936Z,6.87
2019-02-08T08:03:35.871Z,8.17
2019-02-08T08:06:42.560Z,7.53
2019-02-08T08:09:29.853Z,7.00
2019-02-08T08:12:13.820Z,6.73
2019-02-08T08:14:52.936Z,7.33
2019-02-08T08:17:44.240Z,6.43
2019-02-08T08:20:28.908Z,6.00
2019-02-08T08:23:11.628Z,5.13
2019-02-08T08:26:14.238Z,4.60
2019-02-08T08:29:03.576Z,3.33
2019-02-08T08:31:45.952Z,3.00
2019-02-08T08:34:52.573Z,2.43
2019-02-08T08:37:57.428Z,2.07
2019-02-08T08:41:13.894Z,2.60
2019-02-08T08:44:33.293Z,2.03
2019-02-08T08:47:59.568Z,2.50
2019-02-08T08:51:13.255Z,2.50
2019-02-08T08:54:16.957Z,4.20
2019-02-08T08:57:07.525Z,3.40
2019-02-08T09:00:14.812Z,2.43
2019-02-08T09:03:16.566Z,3.07
2019-02-08T09:06:37.461Z,4.73
2019-02-08T09:09:47.935Z,4.53
2019-02-08T09:13:14.638Z,2.90
2019-02-08T09:16:19.052Z,3.27
2019-02-08T09:19:37.312Z,2.70
2019-02-08T09:22:34.368Z,2.03
2019-02-08T09:25:49.963Z,2.63
2019-02-08T09:28:42.776Z,2.83
2019-02-08T09:31:46.133Z,2.50
2019-02-08T09:35:11.647Z,2.10
2019-02-08T09:38:20.205Z,1.97
2019-02-08T09:41:37.756Z,2.10
2019-02-08T09:44:49.106Z,2.00
2019-02-08T09:47:55.214Z,2.03
2019-02-08T09:50:53.316Z,2.30
2019-02-08T09:54:05.106Z,2.30
2019-02-08T09:57:01.354Z,1.50
2019-02-08T10:00:07.913Z,1.83
2019-02-08T10:03:10.577Z,2.17
2019-02-08T10:06:27.155Z,1.80
2019-02-08T10:09:48.633Z,1.70
2019-02-08T10:12:42.995Z,1.53
2019-02-08T10:16:04.479Z,1.67
2019-02-08T10:19:09.393Z,1.67
2019-02-08T10:22:09.104Z,1.30
2019-02-08T10:25:25.249Z,1.63
2019-02-08T10:28:32.556Z,2.00
2019-02-08T10:31:46.493Z,1.50
2019-02-08T10:34:51.601Z,1.53
2019-02-08T10:38:07.835Z,1.70
2019-02-08T10:41:10.880Z,1.80
2019-02-08T10:44:51.281Z,1.30
2019-02-08T10:48:15.535Z,1.27
2019-02-08T10:51:32.648Z,1.60
2019-02-08T10:54:47.848Z,1.37
2019-02-08T10:57:43.517Z,1.60
2019-02-08T11:01:05.593Z,1.33
2019-02-08T11:04:19.764Z,1.60
2019-02-08T11:07:40.832Z,2.00
2019-02-08T11:11:00.486Z,1.40
2019-02-08T11:14:14.917Z,1.33
2019-02-08T11:17:19.968Z,1.03
2019-02-08T11:19:55.747Z,2.40
2019-02-08T11:22:24.972Z,1.33
2019-02-08T11:24:53.990Z,1.40
2019-02-08T11:27:23.405Z,1.10
2019-02-08T11:29:52.397Z,1.40
2019-02-08T11:32:43.265Z,1.30
2019-02-08T11:35:11.261Z,1.00
2019-02-08T11:37:40.428Z,0.90
2019-02-08T11:40:14.215Z,1.60
2019-02-08T11:42:43.569Z,1.00
2019-02-08T11:45:13.353Z,1.00
2019-02-08T11:47:42.668Z,1.43
2019-02-08T11:50:15.310Z,1.30
2019-02-08T11:52:44.660Z,1.67
2019-02-08T11:55:33.085Z,2.50
2019-02-08T11:58:02.288Z,1.53
2019-02-08T12:00:38.093Z,1.63
2019-02-08T12:03:07.084Z,1.27
2019-02-08T12:05:36.112Z,1.03
2019-02-08T12:08:07.132Z,1.07
2019-02-08T12:10:36.128Z,1.17
2019-02-08T12:13:05.156Z,0.97
2019-02-08T12:15:34.173Z,1.20
2019-02-08T12:18:03.453Z,0.90
2019-02-08T12:20:32.447Z,1.10
2019-02-08T12:23:01.521Z,1.10
2019-02-08T12:25:30.541Z,1.10
2019-02-08T12:27:59.537Z,0.80
2019-02-08T12:30:32.268Z,1.20
2019-02-08T12:33:01.264Z,1.43
2019-02-08T12:35:30.268Z,1.17
2019-02-08T12:37:59.686Z,1.27
2019-02-08T12:40:28.712Z,1.10
2019-02-08T12:42:57.698Z,0.97
2019-02-08T12:45:26.818Z,1.17
2019-02-08T12:47:56.921Z,1.27
2019-02-08T12:50:26.122Z,0.90
2019-02-08T12:52:55.536Z,1.13
2019-02-08T12:55:24.543Z,1.10
2019-02-08T12:57:53.495Z,0.90
2019-02-08T13:00:22.590Z,1.10
2019-02-08T13:02:51.932Z,1.00
2019-02-08T13:05:21.427Z,0.90
2019-02-08T13:07:50.640Z,2.30
2019-02-08T13:10:21.764Z,1.10
2019-02-08T13:12:50.799Z,1.13
2019-02-08T13:15:20.016Z,1.10
2019-02-08T13:17:49.033Z,1.30
2019-02-08T13:20:18.395Z,1.30
2019-02-08T13:22:49.070Z,1.30
2019-02-08T13:25:18.396Z,1.30
2019-02-08T13:27:48.333Z,1.00
2019-02-08T13:30:19.952Z,1.40
2019-02-08T13:32:48.892Z,1.20
2019-02-08T13:35:18.178Z,1.20
2019-02-08T13:37:47.293Z,1.00
2019-02-08T13:40:16.973Z,1.13
2019-02-08T13:42:46.276Z,1.30
2019-02-08T13:45:15.684Z,1.00
2019-02-08T13:47:45.388Z,1.33
2019-02-08T13:50:17.312Z,1.40
2019-02-08T13:52:46.956Z,1.00
2019-02-08T13:55:17.084Z,1.10
2019-02-08T13:57:46.099Z,0.90
2019-02-08T14:00:23.960Z,0.90
2019-02-08T14:02:52.961Z,1.20
2019-02-08T14:05:21.993Z,1.17
2019-02-08T14:07:50.992Z,1.00
2019-02-08T14:10:20.557Z,0.87
2019-02-08T14:12:49.546Z,1.50
2019-02-08T14:15:19.170Z,1.07
2019-02-08T14:17:48.528Z,0.87
2019-02-08T14:20:19.757Z,1.00
2019-02-08T14:22:49.141Z,2.23
2019-02-08T14:25:18.804Z,1.13
2019-02-08T14:27:47.822Z,1.30
2019-02-08T14:30:37.664Z,1.93
2019-02-08T14:33:06.838Z,1.03
2019-02-08T14:35:35.970Z,0.90
2019-02-08T14:38:07.490Z,1.23
2019-02-08T14:40:36.953Z,3.27
2019-02-08T14:43:05.964Z,5.77
2019-02-08T14:45:35.239Z,9.77
2019-02-08T14:48:04.773Z,4.77
2019-02-08T14:50:33.760Z,4.97
2019-02-08T14:53:02.756Z,5.43
2019-02-08T14:55:31.775Z,7.63
2019-02-08T14:58:01.279Z,8.87
2019-02-08T15:00:30.300Z,11.60
2019-02-08T15:02:59.345Z,11.10
2019-02-08T15:05:28.280Z,14.47
2019-02-08T15:07:57.685Z,18.13
2019-02-08T15:10:29.460Z,22.67
2019-02-08T15:13:00.222Z,17.40
2019-02-08T15:15:29.625Z,13.43
2019-02-08T15:17:58.660Z,11.10
2019-02-08T15:20:30.041Z,13.50
2019-02-08T15:22:59.456Z,10.50
2019-02-08T15:25:28.825Z,9.87
2019-02-08T15:27:57.942Z,8.23
2019-02-08T15:30:29.417Z,5.40
2019-02-08T15:32:58.444Z,5.17
2019-02-08T15:35:27.977Z,4.17
2019-02-08T15:37:57.104Z,3.80
2019-02-08T15:40:38.054Z,6.90
2019-02-08T15:43:07.693Z,3.53
2019-02-08T15:45:36.728Z,4.33
2019-02-08T15:48:05.846Z,3.63
2019-02-08T15:50:35.257Z,3.30
2019-02-08T15:53:05.414Z,4.73
2019-02-08T15:55:36.203Z,5.17
2019-02-08T15:58:06.213Z,5.47
2019-02-08T16:00:36.029Z,4.63
2019-02-08T16:03:07.428Z,5.93
2019-02-08T16:05:36.752Z,5.70
2019-02-08T16:08:05.796Z,13.30
2019-02-08T16:10:35.160Z,10.63
2019-02-08T16:13:04.257Z,3.57
2019-02-08T16:15:33.281Z,8.70
2019-02-08T16:18:21.397Z,7.97
2019-02-08T16:20:50.427Z,6.23
2019-02-08T16:23:19.339Z,6.40
2019-02-08T16:25:48.409Z,6.00
2019-02-08T16:28:17.372Z,5.60
2019-02-08T16:30:46.475Z,5.40
2019-02-08T16:33:15.793Z,3.57
2019-02-08T16:35:44.868Z,3.13
2019-02-08T16:38:13.893Z,6.33
2019-02-08T16:40:42.900Z,6.90
2019-02-08T16:43:11.896Z,13.43
2019-02-08T16:45:41.034Z,8.53
2019-02-08T16:48:10.221Z,7.03
2019-02-08T16:50:39.412Z,9.33
2019-02-08T16:53:09.251Z,9.97
2019-02-08T16:55:38.633Z,10.70
2019-02-08T16:58:07.957Z,7.87
2019-02-08T17:00:37.113Z,6.40
2019-02-08T17:03:08.257Z,6.90
2019-02-08T17:05:37.288Z,7.30
2019-02-08T17:08:06.316Z,7.50
2019-02-08T17:10:35.574Z,8.90
2019-02-08T17:13:05.049Z,12.30
2019-02-08T17:15:34.452Z,12.07
2019-02-08T17:18:03.550Z,12.13
2019-02-08T17:20:37.464Z,11.10
2019-02-08T17:23:06.583Z,16.77
2019-02-08T17:25:35.880Z,14.00
2019-02-08T17:28:05.890Z,12.93
2019-02-08T17:30:35.085Z,13.10
2019-02-08T17:33:04.525Z,10.78
2019-02-08T17:35:33.516Z,12.50
2019-02-08T17:38:02.549Z,13.50
2019-02-08T17:40:32.592Z,9.40
2019-02-08T17:43:01.612Z,11.12
2019-02-08T17:45:30.552Z,9.80
2019-02-08T17:48:01.657Z,10.18
2019-02-08T17:50:30.901Z,9.50
2019-02-08T17:53:00.045Z,9.55
2019-02-08T17:55:29.621Z,10.10
2019-02-08T17:58:03.538Z,9.10
2019-02-08T18:00:43.935Z,13.40
2019-02-08T18:03:12.949Z,16.07
2019-02-08T18:05:41.981Z,18.10
2019-02-08T18:08:11.406Z,15.53
2019-02-08T18:10:40.392Z,5.75
2019-02-08T18:13:09.400Z,8.37
2019-02-08T18:15:38.400Z,10.60
2019-02-08T18:18:09.472Z,16.50
2019-02-08T18:20:41.011Z,20.25
2019-02-08T18:23:10.008Z,17.42
2019-02-08T18:25:39.024Z,16.23
2019-02-08T18:28:11.032Z,19.07
2019-02-08T18:30:39.860Z,17.98
2019-02-08T18:33:09.223Z,19.32
2019-02-08T18:35:38.256Z,18.10
2019-02-08T18:38:07.560Z,15.78
2019-02-08T18:40:36.936Z,18.45
2019-02-08T18:43:05.973Z,16.00
2019-02-08T18:45:35.276Z,11.80
2019-02-08T18:48:05.051Z,9.00
2019-02-08T18:50:36.484Z,16.97
2019-02-08T18:53:05.931Z,14.25
2019-02-08T18:55:35.233Z,15.78
2019-02-08T18:58:04.981Z,15.08
2019-02-08T19:00:39.983Z,15.30
2019-02-08T19:03:07.620Z,15.35
2019-02-08T19:05:36.676Z,14.78
2019-02-08T19:08:06.712Z,14.60
2019-02-08T19:10:35.717Z,15.38
2019-02-08T19:13:05.060Z,12.50
2019-02-08T19:15:34.293Z,12.58
2019-02-08T19:18:03.300Z,11.35
2019-02-08T19:20:32.336Z,9.25
2019-02-08T19:23:01.613Z,11.08
2019-02-08T19:25:35.688Z,9.35
2019-02-08T19:28:05.196Z,9.38
2019-02-08T19:30:35.840Z,8.38
2019-02-08T19:33:05.584Z,6.65
2019-02-08T19:35:34.608Z,6.40
2019-02-08T19:38:03.649Z,6.05
2019-02-08T19:40:37.696Z,5.00
2019-02-08T19:43:06.941Z,4.80
2019-02-08T19:45:36.009Z,4.53
2019-02-08T19:48:06.193Z,4.10
2019-02-08T19:50:37.192Z,5.03
2019-02-08T19:53:07.092Z,4.20
2019-02-08T19:55:36.209Z,5.10
2019-02-08T19:58:06.545Z,5.87
2019-02-08T20:00:35.693Z,5.43
2019-02-08T20:03:05.593Z,5.63
2019-02-08T20:05:35.201Z,4.77
2019-02-08T20:08:04.525Z,4.90
2019-02-08T20:10:35.616Z,2.83
2019-02-08T20:13:05.005Z,2.50
2019-02-08T20:15:34.411Z,3.13
2019-02-08T20:18:03.416Z,3.10
2019-02-08T20:20:32.417Z,3.60
2019-02-08T20:23:01.532Z,3.30
2019-02-08T20:25:32.193Z,2.77
2019-02-08T20:28:01.854Z,2.67
2019-02-08T20:30:31.328Z,2.30
2019-02-08T20:33:00.868Z,2.53
2019-02-08T20:35:30.380Z,2.40
2019-02-08T20:37:59.811Z,2.20
2019-02-08T20:40:37.123Z,2.20
2019-02-08T20:43:06.106Z,2.53
2019-02-08T20:45:35.501Z,1.90
2019-02-08T20:48:08.068Z,2.17
2019-02-08T20:50:37.088Z,2.03
2019-02-08T20:53:06.093Z,3.17
2019-02-08T20:55:35.936Z,3.80
2019-02-08T20:58:07.197Z,4.13
2019-02-08T21:00:38.297Z,4.10
2019-02-08T21:03:12.716Z,3.57
2019-02-08T21:05:42.933Z,2.70
2019-02-08T21:08:12.622Z,2.00
2019-02-08T21:10:41.745Z,1.60
2019-02-08T21:13:11.510Z,1.90
2019-02-08T21:15:41.572Z,2.77
2019-02-08T21:18:11.545Z,2.77
2019-02-08T21:20:41.772Z,3.37
2019-02-08T21:23:11.776Z,6.80
2019-02-08T21:25:40.932Z,3.60
2019-02-08T21:28:10.507Z,4.30
2019-02-08T21:30:39.576Z,2.73
2019-02-08T21:33:10.632Z,3.07
2019-02-08T21:35:39.645Z,2.93
2019-02-08T21:38:09.089Z,4.63
2019-02-08T21:40:38.622Z,3.20
2019-02-08T21:43:08.001Z,4.27
2019-02-08T21:45:37.846Z,5.13
2019-02-08T21:48:08.393Z,7.03
2019-02-08T21:50:37.380Z,4.10
2019-02-08T21:53:06.720Z,3.77
2019-02-08T21:55:36.229Z,3.37
2019-02-08T21:58:06.280Z,3.50
2019-02-08T22:00:37.393Z,3.30
2019-02-08T22:03:07.627Z,2.60
2019-02-08T22:05:42.408Z,2.47
2019-02-08T22:08:11.416Z,2.97
2019-02-08T22:10:40.792Z,3.20
2019-02-08T22:13:09.799Z,3.17
2019-02-08T22:15:38.904Z,3.17
2019-02-08T22:18:08.501Z,2.13
2019-02-08T22:20:37.828Z,3.20
2019-02-08T22:23:14.924Z,2.53
2019-02-08T22:25:43.900Z,2.67
2019-02-08T22:28:12.920Z,2.07
2019-02-08T22:30:42.207Z,2.10
2019-02-08T22:33:11.604Z,2.30
2019-02-08T22:35:40.775Z,2.53
2019-02-08T22:38:09.897Z,2.20
2019-02-08T22:40:39.181Z,2.10
2019-02-08T22:43:08.551Z,2.90
2019-02-08T22:45:39.243Z,2.77
2019-02-08T22:48:09.220Z,2.67
2019-02-08T22:50:38.294Z,3.10
2019-02-08T22:53:08.808Z,4.13
2019-02-08T22:55:38.009Z,3.47
2019-02-08T22:58:08.100Z,3.43
2019-02-08T23:01:27.367Z,5.00
2019-02-08T23:03:57.830Z,4.40
2019-02-08T23:06:29.898Z,5.10
2019-02-08T23:08:59.338Z,4.13
2019-02-08T23:11:28.729Z,3.93
2019-02-08T23:13:58.131Z,4.77
2019-02-08T23:16:27.188Z,4.50
2019-02-08T23:18:56.597Z,3.33
2019-02-08T23:21:25.597Z,4.40
2019-02-08T23:23:54.553Z,4.67
2019-02-08T23:26:23.536Z,3.47
2019-02-08T23:28:52.475Z,3.70
2019-02-08T23:31:21.796Z,4.10
2019-02-08T23:33:50.720Z,4.43
2019-02-08T23:36:19.740Z,3.80
2019-02-08T23:38:48.745Z,4.17
2019-02-08T23:41:17.744Z,3.53
2019-02-08T23:43:46.744Z,3.77
2019-02-08T23:46:15.661Z,4.00
2019-02-08T23:48:44.657Z,4.30
2019-02-08T23:51:13.655Z,4.30
2019-02-08T23:53:43.025Z,4.53
2019-02-08T23:56:12.040Z,4.77
2019-02-08T23:58:41.068Z,4.17
